Elizabeth, LA (70638)

3:49 PM CST on February 06, 2016 (GMT -0600)
Fort Polk | | Change Station
CLOSE
Current Station
Airport
Location: Fort Polk,
Elevation: 305 ft
Nearby Weather Stations

Elev 305 ft 31.02 °N, 92.91 °W | Updated 55 minutes ago

Overcast
Overcast
46 °F
Feels Like 44 °F
N
5
Wind Variable Wind from NNE

Today
High -- | Low -- °F
--% Chance of Precip.
Yesterday
High -- | Low -- °F
Precip. -- in
Pressure 30.36 in
Visibility 10.0 miles
Clouds Overcast 4900 ft
Windchill 44 °F
Dew Point 41 °F
Humidity 83%
Rainfall 0.03 in
Snow Depth Not available.
6:59 AM 5:50 PM
Waning Crescent, 4% visible
METAR KBKB 062054Z AUTO 02004KT 10SM RA OVC049 08/05 A3027 RMK AO2 RAB43 SLP281 P0002 60002 T00780050 55008
Pressure 30.36 in
Visibility 10.0 miles
Clouds Overcast 4900 ft
Windchill 44 °F
Dew Point 41 °F
Humidity 83%
Rainfall 0.03 in
Snow Depth Not available.
6:59 AM 5:50 PM
Waning Crescent, 4% visible
METAR KBKB 062054Z AUTO 02004KT 10SM RA OVC049 08/05 A3027 RMK AO2 RAB43 SLP281 P0002 60002 T00780050 55008

10-Day Weather Forecast

Almanac

Astronomy

Feb. 06, 2016 Rise Set
Actual Time
Civil Twilight
Nautical Twilight
Astronomical Twilight
Moon
Length of Visible Light
Length of Day
Tomorrow will be .
, % of the Moon is Illuminated

Today's Extremes

State Highs State Lows

Community

WunderPhotos

Upload Photos

1,891,051 photos uploaded!

WunderBlog® & News

Nearby

Air Quality

  Air Quality AQ Index Pollutant
Not available.

Snow Depth

Station Depth Elevation

Earthquake Activity

City Distance Mag. Time & Date
Minimum magnitude displayed is 2.5.

Coastal Water Temperatures

Place Temperature

Stations

Nearby Weather Stations

Station Location Temp. Windchill Dew Point Humidity Wind Precip. Elev Updated Type
                   

Watches & Warnings

There are currently no watches in effect.